LGIR/HER METAR and TAF weather

Enter ICAO airport designator
Station Type Date Time Source
LGIR METAR 2020/07/10 22:20 UTC NOAA

LGIR 102220Z 29009KT 9999 FEW025 24/16 Q1012 NOSIG


Station Type Date Time Source
LGIR Decoded METAR 2020/07/10 22:20 UTC NOAA

Heraklion Airport , Greece (LGIR) 35-20N 025-11E 39M
Jul 10, 2020 - 06:20 PM EDT / 2020.07.10 2220 UTC
Wind: from the WNW (290 degrees) at 10 MPH (9 KT):0
Visibility: greater than 7 mile(s):0
Sky conditions: mostly clear
Temperature: 75 F (24 C)
Dew Point: 60 F (16 C)
Relative Humidity: 60%
Pressure (altimeter): 29.88 in. Hg (1012 hPa)
ob: LGIR 102220Z 29009KT 9999 FEW025 24/16 Q1012 NOSIG
cycle: 22

Station Type Date Time Source
LGIR TAF 2020/07/10 18:12 UTC NOAA

TAF LGIR 101700Z 1018/1118 33015KT 9999 FEW020

Example: see airport list